Terminal Aerodrome Forecast
Issued by NWS Quad Cities IA IL

Home | Current Version | Previous Version | Text Only | Print | Product List | Glossary On
Versions: 1 2 3 4 5 6 7 8 9 10 11 12 13 14 15 16 17 18 19 20 21 22 23 24
000
FTUS43 KDVN 271210 CCA
TAFMLI
TAF COR
KMLI 271210Z 2712/2812 13005KT 6SM BR OVC040
      TEMPO 2712/2713 OVC008
     FM271500 20005KT P6SM FEW035 SCT250
     FM280700 10004KT 4SM BR SCT250=

USA.gov is the U.S. government's official web portal to all federal, state and local government web resources and services.